createdAt,value
2023-05-07T00:00:30.524Z,97628.84
2023-05-07T00:03:04.635Z,97633.84
2023-05-07T00:05:34.168Z,97625.53
2023-05-07T00:08:03.069Z,97605.13
2023-05-07T00:10:34.650Z,97609.78
2023-05-07T00:13:09.547Z,97611.63
2023-05-07T00:15:38.215Z,97623.69
2023-05-07T00:18:08.452Z,97631.72
2023-05-07T00:20:44.339Z,97612.97
2023-05-07T00:23:17.883Z,97620.06
2023-05-07T00:25:50.266Z,97635.88
2023-05-07T00:28:43.526Z,97614.25
2023-05-07T00:31:12.214Z,97611.03
2023-05-07T00:33:48.198Z,97594.56
2023-05-07T00:36:18.498Z,97622.78
2023-05-07T00:38:47.001Z,97616.34
2023-05-07T00:41:16.081Z,97606.63
2023-05-07T00:43:46.102Z,97600.41
2023-05-07T00:46:21.277Z,97653.03
2023-05-07T00:48:50.650Z,97648.25
2023-05-07T00:51:28.968Z,97602.06
2023-05-07T00:53:57.380Z,97616.69
2023-05-07T00:56:29.337Z,97600.25
2023-05-07T00:59:04.984Z,97629.09
2023-05-07T01:01:34.345Z,97599.84
2023-05-07T01:04:06.141Z,97605.63
2023-05-07T01:06:54.067Z,97637.41
2023-05-07T01:09:24.741Z,97622.59
2023-05-07T01:12:01.341Z,97592.72
2023-05-07T01:14:39.425Z,97578.09
2023-05-07T01:17:09.658Z,97583.22
2023-05-07T01:19:42.816Z,97619.03
2023-05-07T01:22:12.875Z,97611.25
2023-05-07T01:24:52.290Z,97612.69
2023-05-07T01:27:21.305Z,97575.72
2023-05-07T01:29:53.115Z,97613.13
2023-05-07T01:32:30.164Z,97590.78
2023-05-07T01:35:04.648Z,97625.31
2023-05-07T01:37:36.285Z,97626.59
2023-05-07T01:40:09.104Z,97613.94
2023-05-07T01:42:41.357Z,97622.28
2023-05-07T01:45:11.429Z,97587.44
2023-05-07T01:47:41.684Z,97601.94
2023-05-07T01:50:14.772Z,97589.56
2023-05-07T01:52:44.213Z,97608.66
2023-05-07T01:55:17.012Z,97627.53
2023-05-07T01:57:46.006Z,97614.06
2023-05-07T02:00:15.883Z,97630.78
2023-05-07T02:02:54.345Z,97586.97
2023-05-07T02:05:23.810Z,97610.38
2023-05-07T02:08:01.986Z,97602.19
2023-05-07T02:10:33.262Z,97628.16
2023-05-07T02:13:08.840Z,97590.13
2023-05-07T02:15:39.294Z,97629.22
2023-05-07T02:18:11.352Z,97594.94
2023-05-07T02:20:50.037Z,97592.88
2023-05-07T02:23:20.595Z,97587.44
2023-05-07T02:25:54.271Z,97575.03
2023-05-07T02:28:27.674Z,97608.13
2023-05-07T02:30:59.934Z,97588.63
2023-05-07T02:33:29.354Z,97589.28
2023-05-07T02:35:58.611Z,97595.19
2023-05-07T02:38:30.996Z,97611.91
2023-05-07T02:41:02.060Z,97578.25
2023-05-07T02:43:35.217Z,97590.47
2023-05-07T02:46:19.594Z,97570.75
2023-05-07T02:48:50.844Z,97588.50
2023-05-07T02:51:26.030Z,97608.88
2023-05-07T02:53:55.394Z,97589.66
2023-05-07T02:56:26.068Z,97622.44
2023-05-07T02:58:57.198Z,97576.97
2023-05-07T03:01:26.603Z,97577.56
2023-05-07T03:03:58.100Z,97619.38
2023-05-07T03:06:27.785Z,97589.19
2023-05-07T03:08:58.150Z,97564.69
2023-05-07T03:11:30.742Z,97575.16
2023-05-07T03:14:02.289Z,97570.63
2023-05-07T03:16:31.678Z,97583.97
2023-05-07T03:19:01.826Z,97622.00
2023-05-07T03:21:36.447Z,97609.38
2023-05-07T03:24:08.581Z,97578.47
2023-05-07T03:26:40.247Z,97608.13
2023-05-07T03:29:09.001Z,97586.06
2023-05-07T03:31:44.532Z,97603.22
2023-05-07T03:34:19.918Z,97572.38
2023-05-07T03:36:49.092Z,97615.81
2023-05-07T03:39:18.054Z,97600.94
2023-05-07T03:41:49.559Z,97594.72
2023-05-07T03:44:18.747Z,97604.03
2023-05-07T03:46:48.617Z,97576.50
2023-05-07T03:49:18.496Z,97606.31
2023-05-07T03:51:47.583Z,97583.31
2023-05-07T03:54:16.851Z,97577.56
2023-05-07T03:56:45.873Z,97583.28
2023-05-07T03:59:18.848Z,97629.94
2023-05-07T04:01:52.034Z,97602.47
2023-05-07T04:04:21.655Z,97592.47
2023-05-07T04:06:50.697Z,97606.59
2023-05-07T04:09:19.362Z,97629.84
2023-05-07T04:11:48.470Z,97611.19
2023-05-07T04:14:18.275Z,97629.44
2023-05-07T04:16:48.040Z,97637.22
2023-05-07T04:19:17.051Z,97650.16
2023-05-07T04:21:48.744Z,97648.00
2023-05-07T04:24:17.805Z,97637.53
2023-05-07T04:26:49.669Z,97640.81
2023-05-07T04:29:23.114Z,97642.59
2023-05-07T04:34:54.118Z,97626.16
2023-05-07T04:37:25.168Z,97641.31
2023-05-07T04:40:02.072Z,97619.59
2023-05-07T04:42:33.986Z,97665.31
2023-05-07T04:45:24.401Z,97666.81
2023-05-07T04:48:01.477Z,97621.50
2023-05-07T04:50:37.020Z,97670.81
2023-05-07T04:53:13.198Z,97659.22
2023-05-07T04:55:45.955Z,97633.28
2023-05-07T04:58:14.671Z,97650.84
2023-05-07T05:00:53.150Z,97690.97
2023-05-07T05:03:30.425Z,97659.28
2023-05-07T05:06:11.026Z,97686.91
2023-05-07T05:08:44.526Z,97686.03
2023-05-07T05:11:18.337Z,97697.81
2023-05-07T05:13:52.986Z,97722.47
2023-05-07T05:16:24.815Z,97711.00
2023-05-07T05:18:56.328Z,97722.34
2023-05-07T05:21:26.026Z,97751.16
2023-05-07T05:23:58.963Z,97738.94
2023-05-07T05:26:28.054Z,97743.44
2023-05-07T05:28:57.000Z,97764.69
2023-05-07T05:31:30.240Z,97775.28
2023-05-07T05:34:01.955Z,97772.63
2023-05-07T05:36:30.913Z,97758.72
2023-05-07T05:39:01.264Z,97786.94
2023-05-07T05:41:34.569Z,97785.09
2023-05-07T05:44:04.604Z,97760.34
2023-05-07T05:46:37.153Z,97785.50
2023-05-07T05:49:06.138Z,97790.81
2023-05-07T05:51:36.203Z,97755.66
2023-05-07T05:54:05.804Z,97786.03
2023-05-07T05:56:34.306Z,97778.22
2023-05-07T05:59:03.424Z,97753.09
2023-05-07T06:01:33.706Z,97799.16
2023-05-07T06:04:05.608Z,97817.63
2023-05-07T06:06:34.385Z,97877.00
2023-05-07T06:09:03.790Z,97784.25
2023-05-07T06:11:35.207Z,97841.94
2023-05-07T06:14:04.897Z,97894.78
2023-05-07T06:16:34.857Z,97841.94
2023-05-07T06:19:04.434Z,97847.84
2023-05-07T06:21:32.784Z,97918.66
2023-05-07T06:24:01.582Z,97915.31
2023-05-07T06:26:30.176Z,97920.94
2023-05-07T06:28:58.679Z,97909.75
2023-05-07T06:31:32.696Z,97960.06
2023-05-07T06:34:03.455Z,97969.16
2023-05-07T06:36:32.385Z,97965.72
2023-05-07T06:39:02.785Z,98003.59
2023-05-07T06:41:32.115Z,98071.47
2023-05-07T06:44:00.809Z,98034.56
2023-05-07T06:46:30.980Z,97906.81
2023-05-07T06:49:02.300Z,97937.69
2023-05-07T06:51:33.178Z,97947.22
2023-05-07T06:54:01.457Z,97981.72
2023-05-07T06:56:30.595Z,97959.06
2023-05-07T06:58:59.750Z,97930.28
2023-05-07T07:01:31.444Z,97903.56
2023-05-07T07:04:00.779Z,97877.19
2023-05-07T07:06:29.456Z,97967.78
2023-05-07T07:08:59.943Z,98003.56
2023-05-07T07:11:31.587Z,97985.53
2023-05-07T07:14:02.029Z,97916.72
2023-05-07T07:16:30.846Z,97973.78
2023-05-07T07:19:02.763Z,97936.88
2023-05-07T07:21:33.722Z,97893.28
2023-05-07T07:24:04.030Z,97889.84
2023-05-07T07:26:32.435Z,97830.81
2023-05-07T07:29:02.940Z,97826.84
2023-05-07T07:31:32.404Z,97828.81
2023-05-07T07:34:06.993Z,97860.19
2023-05-07T07:36:45.509Z,97832.41
2023-05-07T07:39:17.321Z,97810.81
2023-05-07T07:41:53.781Z,97819.69
2023-05-07T07:44:25.130Z,97840.28
2023-05-07T07:46:54.171Z,97834.00
2023-05-07T07:49:23.203Z,97839.91
2023-05-07T07:51:52.774Z,97818.88
2023-05-07T07:54:23.478Z,97853.78
2023-05-07T07:56:52.692Z,97806.63
2023-05-07T07:59:23.632Z,97819.19
2023-05-07T08:01:55.525Z,97802.16
2023-05-07T08:04:24.768Z,97842.66
2023-05-07T08:06:55.492Z,97835.41
2023-05-07T08:09:26.089Z,97811.75
2023-05-07T08:11:54.710Z,97799.38
2023-05-07T08:14:24.175Z,97816.44
2023-05-07T08:16:52.938Z,97805.81
2023-05-07T08:19:21.531Z,97789.41
2023-05-07T08:21:51.203Z,97845.44
2023-05-07T08:24:24.949Z,97857.75
2023-05-07T08:26:54.644Z,97820.06
2023-05-07T08:29:23.026Z,97820.50
2023-05-07T08:31:52.116Z,97843.78
2023-05-07T08:34:20.897Z,97830.72
2023-05-07T08:36:49.678Z,97862.50
2023-05-07T08:39:19.918Z,97865.69
2023-05-07T08:41:51.037Z,97833.50
2023-05-07T08:44:25.496Z,97836.78
2023-05-07T08:46:56.495Z,97782.47
2023-05-07T08:49:26.937Z,97830.00
2023-05-07T08:51:56.260Z,97777.31
2023-05-07T08:54:24.824Z,97792.31
2023-05-07T08:56:53.750Z,97755.16
2023-05-07T08:59:23.903Z,97858.41
2023-05-07T09:01:53.234Z,97833.56
2023-05-07T09:04:22.102Z,97856.78
2023-05-07T09:06:53.091Z,97896.00
2023-05-07T09:09:22.271Z,97931.19
2023-05-07T09:11:51.986Z,97871.94
2023-05-07T09:14:24.533Z,97914.41
2023-05-07T09:16:55.394Z,97867.56
2023-05-07T09:19:26.353Z,97872.44
2023-05-07T09:22:02.256Z,97882.69
2023-05-07T09:24:39.656Z,97790.22
2023-05-07T09:27:11.280Z,97811.38
2023-05-07T09:29:40.235Z,97830.84
2023-05-07T09:32:11.481Z,97828.94
2023-05-07T09:34:47.380Z,97883.13
2023-05-07T09:37:16.749Z,97852.69
2023-05-07T09:39:48.087Z,97794.31
2023-05-07T09:42:17.398Z,97774.59
2023-05-07T09:44:46.930Z,97826.47
2023-05-07T09:47:23.350Z,97766.13
2023-05-07T09:49:57.951Z,97753.63
2023-05-07T09:52:30.265Z,97760.13
2023-05-07T09:55:03.777Z,97781.03
2023-05-07T09:57:36.960Z,97782.22
2023-05-07T10:00:10.243Z,97805.41
2023-05-07T10:02:47.940Z,97810.91
2023-05-07T10:05:17.359Z,97847.06
2023-05-07T10:07:46.868Z,97771.97
2023-05-07T10:10:17.192Z,97828.06
2023-05-07T10:12:45.884Z,97803.72
2023-05-07T10:15:16.679Z,97786.69
2023-05-07T10:17:48.024Z,97831.16
2023-05-07T10:20:18.234Z,97818.13
2023-05-07T10:22:50.829Z,97830.38
2023-05-07T10:25:26.519Z,97804.09
2023-05-07T10:27:58.059Z,97842.63
2023-05-07T10:30:41.067Z,97803.03
2023-05-07T10:33:14.995Z,97817.69
2023-05-07T10:35:48.094Z,97827.22
2023-05-07T10:38:17.561Z,97893.16
2023-05-07T10:40:47.956Z,97878.53
2023-05-07T10:43:29.830Z,97899.22
2023-05-07T10:46:19.357Z,97846.31
2023-05-07T10:49:16.930Z,97892.97
2023-05-07T10:51:47.038Z,97886.25
2023-05-07T10:55:16.426Z,97863.91
2023-05-07T10:57:45.387Z,97820.28
2023-05-07T11:00:46.613Z,97836.03
2023-05-07T11:03:17.426Z,97791.13
2023-05-07T11:05:50.946Z,97839.47
2023-05-07T11:08:19.974Z,97814.88
2023-05-07T11:10:55.362Z,97798.69
2023-05-07T11:13:48.705Z,97779.59
2023-05-07T11:16:23.132Z,97820.72
2023-05-07T11:18:53.949Z,97816.09
2023-05-07T11:21:38.933Z,97781.59
2023-05-07T11:24:09.383Z,97847.00
2023-05-07T11:26:48.235Z,97830.63
2023-05-07T11:29:21.786Z,97883.59
2023-05-07T11:31:59.002Z,97848.47
2023-05-07T11:34:31.413Z,97819.97
2023-05-07T11:37:08.541Z,97821.75
2023-05-07T11:39:40.418Z,97801.03
2023-05-07T11:42:10.109Z,97799.41
2023-05-07T11:44:49.679Z,97787.47
2023-05-07T11:47:21.785Z,97814.63
2023-05-07T11:49:53.743Z,97874.63
2023-05-07T11:52:28.497Z,97821.59
2023-05-07T11:54:59.136Z,97793.38
2023-05-07T11:57:29.637Z,97791.13
2023-05-07T11:59:58.969Z,97786.63
2023-05-07T12:02:29.760Z,97802.97
2023-05-07T12:05:06.748Z,97774.75
2023-05-07T12:07:37.628Z,97775.66
2023-05-07T12:10:11.613Z,97742.66
2023-05-07T12:12:44.297Z,97796.66
2023-05-07T12:15:18.910Z,97779.63
2023-05-07T12:17:48.921Z,97751.38
2023-05-07T12:20:18.923Z,97750.28
2023-05-07T12:22:53.308Z,97787.16
2023-05-07T12:25:23.124Z,97785.91
2023-05-07T12:28:03.025Z,97796.81
2023-05-07T12:30:32.892Z,97799.06
2023-05-07T12:33:01.445Z,97767.72
2023-05-07T12:35:31.328Z,97733.69
2023-05-07T12:38:05.895Z,97734.13
2023-05-07T12:40:46.993Z,97727.38
2023-05-07T12:43:19.987Z,97731.19
2023-05-07T12:45:50.995Z,97731.56
2023-05-07T12:48:22.424Z,97731.22
2023-05-07T12:50:53.089Z,97742.72
2023-05-07T12:53:25.171Z,97747.50
2023-05-07T12:55:59.972Z,97750.25
2023-05-07T12:58:31.156Z,97740.34
2023-05-07T13:01:02.956Z,97784.53
2023-05-07T13:03:34.076Z,97769.53
2023-05-07T13:06:08.152Z,97758.56
2023-05-07T13:08:41.932Z,97764.13
2023-05-07T13:11:12.752Z,97707.59
2023-05-07T13:13:46.427Z,97708.84
2023-05-07T13:16:15.488Z,97695.88
2023-05-07T13:18:47.696Z,97727.25
2023-05-07T13:21:19.287Z,97687.50
2023-05-07T13:23:50.769Z,97708.13
2023-05-07T13:26:26.687Z,97710.53
2023-05-07T13:28:56.782Z,97670.00
2023-05-07T13:31:25.937Z,97680.63
2023-05-07T13:34:08.741Z,97703.75
2023-05-07T13:36:43.270Z,97692.50
2023-05-07T13:39:14.538Z,97690.28
2023-05-07T13:41:46.361Z,97711.38
2023-05-07T13:44:18.873Z,97693.50
2023-05-07T13:46:52.697Z,97736.13
2023-05-07T13:49:21.865Z,97715.28
2023-05-07T13:51:53.294Z,97668.00
2023-05-07T13:54:26.052Z,97691.50
2023-05-07T13:56:56.608Z,97704.59
2023-05-07T13:59:27.189Z,97712.13
2023-05-07T14:01:56.022Z,97672.84
2023-05-07T14:04:24.446Z,97712.56
2023-05-07T14:06:53.538Z,97709.78
2023-05-07T14:09:23.308Z,97700.59
2023-05-07T14:11:52.718Z,97689.53
2023-05-07T14:14:22.121Z,97678.44
2023-05-07T14:16:51.438Z,97728.22
2023-05-07T14:19:24.762Z,97727.50
2023-05-07T14:21:53.759Z,97680.44
2023-05-07T14:24:36.970Z,97681.56
2023-05-07T14:27:07.107Z,97659.63
2023-05-07T14:29:38.029Z,97650.81
2023-05-07T14:32:06.914Z,97669.88
2023-05-07T14:34:39.136Z,97667.94
2023-05-07T14:37:08.006Z,97671.03
2023-05-07T14:39:38.576Z,97668.75
2023-05-07T14:42:09.468Z,97669.19
2023-05-07T14:44:38.239Z,97671.56
2023-05-07T14:47:07.653Z,97674.81
2023-05-07T14:49:36.291Z,97687.88
2023-05-07T14:52:06.085Z,97655.88
2023-05-07T14:54:38.896Z,97678.72
2023-05-07T14:57:09.592Z,97674.66
2023-05-07T14:59:38.306Z,97654.50
2023-05-07T15:02:09.264Z,97648.97
2023-05-07T15:04:39.980Z,97665.25
2023-05-07T15:07:11.987Z,97671.00
2023-05-07T15:09:42.133Z,97670.06
2023-05-07T15:12:11.057Z,97645.41
2023-05-07T15:14:40.029Z,97632.81
2023-05-07T15:17:09.390Z,97654.03
2023-05-07T15:19:38.785Z,97674.81
2023-05-07T15:22:07.585Z,97651.44
2023-05-07T15:24:37.410Z,97661.31
2023-05-07T15:27:07.386Z,97662.34
2023-05-07T15:29:36.232Z,97631.56
2023-05-07T15:32:05.366Z,97683.88
2023-05-07T15:34:34.278Z,97660.44
2023-05-07T15:37:09.957Z,97663.03
2023-05-07T15:39:38.947Z,97640.72
2023-05-07T15:42:15.161Z,97641.78
2023-05-07T15:44:49.425Z,97655.25
2023-05-07T15:47:19.923Z,97656.97
2023-05-07T15:50:03.345Z,97644.81
2023-05-07T15:52:38.267Z,97692.16
2023-05-07T15:55:11.329Z,97680.41
2023-05-07T15:57:45.532Z,97684.38
2023-05-07T16:00:17.352Z,97655.56
2023-05-07T16:02:47.467Z,97638.09
2023-05-07T16:05:23.933Z,97643.09
2023-05-07T16:07:53.778Z,97638.44
2023-05-07T16:10:26.567Z,97667.41
2023-05-07T16:13:03.191Z,97638.03
2023-05-07T16:15:32.194Z,97641.41
2023-05-07T16:18:01.524Z,97651.16
2023-05-07T16:20:31.678Z,97664.41
2023-05-07T16:23:00.342Z,97697.53
2023-05-07T16:25:29.446Z,97685.09
2023-05-07T16:27:59.865Z,97694.59
2023-05-07T16:30:28.844Z,97665.16
2023-05-07T16:32:57.942Z,97673.00
2023-05-07T16:35:26.744Z,97658.16
2023-05-07T16:37:55.414Z,97673.13
2023-05-07T16:40:25.129Z,97661.72
2023-05-07T16:42:55.415Z,97651.88
2023-05-07T16:45:25.697Z,97669.66
2023-05-07T16:47:54.317Z,97624.09
2023-05-07T16:50:25.513Z,97644.75
2023-05-07T16:53:00.671Z,97657.00
2023-05-07T16:55:30.878Z,97676.31
2023-05-07T16:58:00.485Z,97642.91
2023-05-07T17:00:38.103Z,97657.34
2023-05-07T17:03:18.230Z,97652.28
2023-05-07T17:05:47.352Z,97690.31
2023-05-07T17:08:16.544Z,97663.50
2023-05-07T17:10:48.945Z,97676.97
2023-05-07T17:13:17.723Z,97657.69
2023-05-07T17:15:51.418Z,97691.47
2023-05-07T17:18:20.292Z,97677.31
2023-05-07T17:20:49.698Z,97688.44
2023-05-07T17:23:21.697Z,97657.06
2023-05-07T17:25:50.891Z,97652.25
2023-05-07T17:28:19.128Z,97690.38
2023-05-07T17:30:48.962Z,97670.00
2023-05-07T17:33:21.558Z,97685.97
2023-05-07T17:35:50.754Z,97695.56
2023-05-07T17:38:20.630Z,97725.56
2023-05-07T17:40:50.231Z,97681.69
2023-05-07T17:43:19.423Z,97689.94
2023-05-07T17:45:52.891Z,97696.41
2023-05-07T17:48:25.572Z,97711.66
2023-05-07T17:50:57.862Z,97715.09
2023-05-07T17:53:27.495Z,97701.34
2023-05-07T17:55:56.254Z,97698.53
2023-05-07T17:58:27.498Z,97694.28
2023-05-07T18:00:57.443Z,97708.91
2023-05-07T18:03:26.402Z,97724.78
2023-05-07T18:05:55.144Z,97711.09
2023-05-07T18:08:24.292Z,97696.75
2023-05-07T18:10:52.961Z,97688.78
2023-05-07T18:13:34.744Z,97693.47
2023-05-07T18:16:07.109Z,97702.78
2023-05-07T18:18:38.999Z,97726.06
2023-05-07T18:21:10.200Z,97737.53
2023-05-07T18:23:39.659Z,97724.00
2023-05-07T18:26:10.899Z,97709.28
2023-05-07T18:28:40.791Z,97759.41
2023-05-07T18:31:12.165Z,97719.44
2023-05-07T18:33:41.877Z,97771.06
2023-05-07T18:36:11.155Z,97753.81
2023-05-07T18:38:43.364Z,97747.41
2023-05-07T18:41:12.295Z,97745.16
2023-05-07T18:43:41.106Z,97762.97
2023-05-07T18:46:16.002Z,97774.94
2023-05-07T18:48:47.169Z,97738.63
2023-05-07T18:51:22.095Z,97764.13
2023-05-07T18:53:53.648Z,97747.41
2023-05-07T18:56:25.408Z,97743.66
2023-05-07T18:58:59.994Z,97775.63
2023-05-07T19:01:32.217Z,97720.53
2023-05-07T19:04:00.950Z,97752.16
2023-05-07T19:06:34.526Z,97749.28
2023-05-07T19:09:03.148Z,97798.84
2023-05-07T19:11:36.916Z,97756.75
2023-05-07T19:14:06.078Z,97771.44
2023-05-07T19:16:36.644Z,97810.25
2023-05-07T19:19:08.611Z,97784.25
2023-05-07T19:21:39.032Z,97784.75
2023-05-07T19:24:09.593Z,97818.69
2023-05-07T19:26:39.990Z,97797.63
2023-05-07T19:29:17.562Z,97786.75
2023-05-07T19:31:48.684Z,97819.75
2023-05-07T19:34:17.727Z,97827.56
2023-05-07T19:36:47.610Z,97850.13
2023-05-07T19:39:18.586Z,97849.25
2023-05-07T19:41:48.209Z,97836.13
2023-05-07T19:44:17.934Z,97831.28
2023-05-07T19:46:52.939Z,97821.09
2023-05-07T19:49:24.635Z,97832.47
2023-05-07T19:51:59.091Z,97851.47
2023-05-07T19:54:30.274Z,97852.00
2023-05-07T19:57:02.369Z,97836.28
2023-05-07T19:59:31.712Z,97873.91
2023-05-07T20:02:02.070Z,97852.66
2023-05-07T20:04:33.891Z,97857.34
2023-05-07T20:07:02.758Z,97849.75
2023-05-07T20:09:31.514Z,97836.81
2023-05-07T20:12:02.292Z,97828.06
2023-05-07T20:14:32.333Z,97858.28
2023-05-07T20:17:03.043Z,97839.81
2023-05-07T20:19:31.868Z,97883.63
2023-05-07T20:22:01.367Z,97868.22
2023-05-07T20:24:31.082Z,97870.78
2023-05-07T20:27:00.973Z,97880.47
2023-05-07T20:29:30.382Z,97867.56
2023-05-07T20:31:59.809Z,97881.22
2023-05-07T20:34:30.252Z,97858.44
2023-05-07T20:36:58.949Z,97888.78
2023-05-07T20:39:28.175Z,97886.25
2023-05-07T20:41:58.124Z,97877.09
2023-05-07T20:44:26.459Z,97900.69
2023-05-07T20:46:58.815Z,97866.66
2023-05-07T20:49:27.875Z,97906.13
2023-05-07T20:51:58.288Z,97887.06
2023-05-07T20:54:28.697Z,97882.69
2023-05-07T20:57:00.730Z,97909.66
2023-05-07T20:59:35.510Z,97906.16
2023-05-07T21:02:04.622Z,97912.88
2023-05-07T21:04:33.621Z,97912.25
2023-05-07T21:07:07.090Z,97909.34
2023-05-07T21:09:39.467Z,97920.69
2023-05-07T21:12:09.160Z,97866.13
2023-05-07T21:14:39.708Z,97899.19
2023-05-07T21:17:09.334Z,97907.38
2023-05-07T21:19:38.008Z,97897.25
2023-05-07T21:22:08.213Z,97900.47
2023-05-07T21:24:37.643Z,97924.22
2023-05-07T21:27:06.232Z,97939.97
2023-05-07T21:29:34.961Z,97900.25
2023-05-07T21:32:04.458Z,97917.44
2023-05-07T21:34:33.317Z,97950.84
2023-05-07T21:37:01.671Z,97908.47
2023-05-07T21:39:32.176Z,97947.63
2023-05-07T21:42:01.292Z,97946.22
2023-05-07T21:44:31.415Z,97946.91
2023-05-07T21:47:00.579Z,97919.63
2023-05-07T21:49:29.089Z,97930.41
2023-05-07T21:51:57.663Z,97944.16
2023-05-07T21:54:26.990Z,97937.75
2023-05-07T21:56:56.723Z,97976.25
2023-05-07T21:59:25.095Z,97932.94
2023-05-07T22:01:54.545Z,97915.84
2023-05-07T22:04:22.952Z,97955.97
2023-05-07T22:06:52.310Z,97955.72
2023-05-07T22:09:21.228Z,97958.25
2023-05-07T22:11:50.356Z,97972.50
2023-05-07T22:14:21.708Z,97923.63
2023-05-07T22:16:53.750Z,97923.22
2023-05-07T22:19:22.405Z,97946.16
2023-05-07T22:21:51.462Z,97933.31
2023-05-07T22:24:20.536Z,97935.84
2023-05-07T22:26:49.875Z,97922.63
2023-05-07T22:29:21.960Z,97973.53
2023-05-07T22:31:50.405Z,97932.16
2023-05-07T22:34:19.387Z,97941.19
2023-05-07T22:36:47.926Z,97969.53
2023-05-07T22:39:16.558Z,97977.47
2023-05-07T22:41:45.548Z,97935.13
2023-05-07T22:44:14.554Z,97956.59
2023-05-07T22:46:44.530Z,97943.59
2023-05-07T22:49:13.522Z,97952.75
2023-05-07T22:51:42.360Z,97948.66
2023-05-07T22:54:11.351Z,97970.88
2023-05-07T22:56:41.324Z,97936.16
2023-05-07T22:59:10.240Z,97927.75
2023-05-07T23:01:41.912Z,97958.06
2023-05-07T23:04:12.189Z,97947.41
2023-05-07T23:06:41.648Z,97956.25
2023-05-07T23:09:10.245Z,97932.56
2023-05-07T23:11:39.733Z,97933.63
2023-05-07T23:14:08.635Z,97971.06
2023-05-07T23:16:37.534Z,97981.75
2023-05-07T23:19:06.862Z,97938.31
2023-05-07T23:21:37.232Z,97975.81
2023-05-07T23:24:06.513Z,97989.41
2023-05-07T23:26:39.622Z,97946.28
2023-05-07T23:29:08.546Z,97975.06
2023-05-07T23:31:39.826Z,97943.13
2023-05-07T23:34:08.785Z,97970.50
2023-05-07T23:36:38.686Z,97958.91
2023-05-07T23:39:07.030Z,97975.25
2023-05-07T23:41:36.027Z,97955.44
2023-05-07T23:44:04.447Z,97946.53
2023-05-07T23:46:33.313Z,97962.56
2023-05-07T23:49:02.241Z,97955.94
2023-05-07T23:51:31.332Z,97957.63
2023-05-07T23:54:01.414Z,97947.31
2023-05-07T23:56:30.168Z,97953.81
2023-05-07T23:58:58.641Z,97963.31
